Time;durP1;ratioP1;P1;durP2;ratioP2;P2;SDS_P1;SDS_P2;PMS_P1;PMS_P2;Temp;Humidity;BMP_temperature;BMP_pressure;BME280_temperature;BME280_humidity;BME280_pressure;Samples;Min_cycle;Max_cycle;Signal;HPM_P1;HPM_P2
2022/09/04 00:00:08;;;;;;;4.40;0.80;;;18.10;62.30;;;;;;5081626;28;20918;-72
2022/09/04 00:02:43;;;;;;;3.10;0.80;;;18.10;62.20;;;;;;5084033;28;20514;-72
2022/09/04 00:05:21;;;;;;;2.42;0.77;;;18.00;62.30;;;;;;5081632;28;20398;-71
2022/09/04 00:08:18;;;;;;;2.35;0.80;;;18.00;62.50;;;;;;5097707;28;20401;-71
2022/09/04 00:10:49;;;;;;;3.33;0.68;;;17.90;62.30;;;;;;5112473;28;20406;-71
2022/09/04 00:13:29;;;;;;;2.70;0.70;;;17.90;62.50;;;;;;5101826;28;20436;-72
2022/09/04 00:16:13;;;;;;;4.03;0.70;;;17.90;62.70;;;;;;5111579;28;20682;-71
2022/09/04 00:19:05;;;;;;;3.42;1.10;;;17.90;62.90;;;;;;5099038;28;20508;-71
2022/09/04 00:21:39;;;;;;;3.55;0.80;;;17.80;62.90;;;;;;5093449;28;20425;-71
2022/09/04 00:24:18;;;;;;;3.30;0.90;;;17.80;63.10;;;;;;5077485;28;20429;-72
2022/09/04 00:26:54;;;;;;;2.75;0.85;;;17.80;63.40;;;;;;5090265;28;20406;-72
2022/09/04 00:29:23;;;;;;;2.37;0.80;;;17.70;63.40;;;;;;5086480;28;20835;-71
2022/09/04 00:31:57;;;;;;;2.72;0.90;;;17.70;63.60;;;;;;5070072;28;20408;-71
2022/09/04 00:34:51;;;;;;;2.73;0.70;;;17.70;63.50;;;;;;5070747;28;20408;-71
2022/09/04 00:37:23;;;;;;;1.75;0.73;;;17.60;63.90;;;;;;5078705;28;20413;-72
2022/09/04 00:40:18;;;;;;;2.30;0.68;;;17.60;63.50;;;;;;5073755;28;20490;-72
2022/09/04 00:43:10;;;;;;;2.83;0.70;;;17.60;63.80;;;;;;5078332;28;20425;-71
2022/09/04 00:45:56;;;;;;;2.73;0.77;;;17.60;64.00;;;;;;5070100;28;20408;-72
2022/09/04 00:48:48;;;;;;;4.53;0.80;;;17.60;64.20;;;;;;5070358;28;20414;-72
2022/09/04 00:51:39;;;;;;;3.53;0.73;;;17.60;64.30;;;;;;5069597;28;20422;-72
2022/09/04 00:54:35;;;;;;;2.67;0.70;;;17.50;64.40;;;;;;5087917;28;20392;-73
2022/09/04 00:57:38;;;;;;;2.40;0.70;;;17.50;64.50;;;;;;5090919;28;20495;-73
2022/09/04 01:00:15;;;;;;;2.75;0.80;;;17.50;64.40;;;;;;5092020;28;20486;-71
2022/09/04 01:03:06;;;;;;;2.80;0.77;;;17.50;64.70;;;;;;5104520;28;20404;-73
2022/09/04 01:06:09;;;;;;;2.67;0.80;;;17.40;64.50;;;;;;5090983;28;20408;-72
2022/09/04 01:09:10;;;;;;;2.55;0.70;;;17.40;64.60;;;;;;5088359;28;21120;-73
2022/09/04 01:11:44;;;;;;;3.10;0.73;;;17.40;64.90;;;;;;5046245;28;20430;-71
2022/09/04 01:14:38;;;;;;;3.95;0.73;;;17.40;65.00;;;;;;5068755;28;20454;-72
2022/09/04 01:17:39;;;;;;;4.32;0.82;;;17.30;65.20;;;;;;5068954;28;20750;-72
2022/09/04 01:20:29;;;;;;;2.80;0.90;;;17.30;65.90;;;;;;5067947;28;20420;-72
2022/09/04 01:23:10;;;;;;;2.30;0.90;;;17.30;65.90;;;;;;5078534;28;20614;-72
2022/09/04 01:25:59;;;;;;;2.80;0.95;;;17.30;65.50;;;;;;5068724;28;20427;-72
2022/09/04 01:28:41;;;;;;;1.50;0.80;;;17.20;65.80;;;;;;5068734;28;20403;-72
2022/09/04 01:31:44;;;;;;;3.58;0.80;;;17.20;65.80;;;;;;5068283;28;20973;-71
2022/09/04 01:34:38;;;;;;;2.00;0.80;;;17.20;65.90;;;;;;5068497;28;20905;-72
2022/09/04 01:37:27;;;;;;;2.28;0.80;;;17.10;65.90;;;;;;5068403;28;20408;-72
2022/09/04 01:40:13;;;;;;;1.77;0.60;;;17.20;66.00;;;;;;5081153;28;21035;-72
2022/09/04 01:42:53;;;;;;;3.35;0.95;;;17.10;66.20;;;;;;5092133;28;20479;-72
2022/09/04 01:45:32;;;;;;;3.50;0.80;;;17.10;66.40;;;;;;5068506;28;20511;-72
2022/09/04 01:48:02;;;;;;;4.07;0.82;;;17.10;66.80;;;;;;5068817;28;20526;-72
2022/09/04 01:50:31;;;;;;;1.83;0.70;;;17.10;66.20;;;;;;5077974;28;20398;-71
2022/09/04 01:53:17;;;;;;;3.40;0.80;;;17.10;66.60;;;;;;5087535;28;20409;-72
2022/09/04 01:55:50;;;;;;;2.67;0.82;;;17.00;66.20;;;;;;5088537;28;20908;-72
2022/09/04 01:58:46;;;;;;;1.95;0.70;;;17.00;66.40;;;;;;5075936;28;20497;-71
2022/09/04 02:01:21;;;;;;;4.50;0.70;;;17.00;66.30;;;;;;5076518;28;20415;-72
2022/09/04 02:04:11;;;;;;;2.17;0.90;;;17.00;66.40;;;;;;5067782;28;20867;-73
2022/09/04 02:06:58;;;;;;;3.42;0.70;;;17.00;66.70;;;;;;5020044;28;20483;-72
2022/09/04 02:09:38;;;;;;;2.05;0.75;;;16.90;66.50;;;;;;5074320;28;20410;-72
2022/09/04 02:12:41;;;;;;;3.97;1.13;;;16.90;66.70;;;;;;5087030;28;20399;-72
2022/09/04 02:15:18;;;;;;;3.22;0.80;;;16.90;67.20;;;;;;5088136;28;20416;-72
2022/09/04 02:17:47;;;;;;;3.33;1.10;;;16.90;68.00;;;;;;5066982;28;20682;-71
2022/09/04 02:20:23;;;;;;;3.85;0.90;;;16.80;67.70;;;;;;5069109;28;20408;-72
2022/09/04 02:22:58;;;;;;;2.95;0.90;;;16.80;67.60;;;;;;5088179;28;20955;-72
2022/09/04 02:25:37;;;;;;;2.35;0.77;;;16.80;67.90;;;;;;5082846;28;20412;-72
2022/09/04 02:28:25;;;;;;;4.00;1.00;;;16.70;68.10;;;;;;5067953;28;20407;-71
2022/09/04 02:31:04;;;;;;;2.72;0.82;;;16.70;68.10;;;;;;5068463;28;20427;-72
2022/09/04 02:33:34;;;;;;;3.13;1.00;;;16.70;68.30;;;;;;5068113;28;20404;-72
2022/09/04 02:36:22;;;;;;;3.50;0.85;;;16.70;68.90;;;;;;5067883;28;20404;-72
2022/09/04 02:39:01;;;;;;;2.35;0.90;;;16.70;68.40;;;;;;5068013;28;20400;-72
2022/09/04 02:42:02;;;;;;;1.92;0.80;;;16.60;69.00;;;;;;5073323;28;20400;-72
2022/09/04 02:44:36;;;;;;;3.33;1.10;;;16.60;69.10;;;;;;5059347;28;20828;-72
2022/09/04 02:47:23;;;;;;;2.65;0.93;;;16.60;69.30;;;;;;5079014;28;20491;-72
2022/09/04 02:50:19;;;;;;;3.63;1.00;;;16.60;69.10;;;;;;5086000;28;20462;-72
2022/09/04 02:52:58;;;;;;;3.57;0.87;;;16.50;69.10;;;;;;5087630;28;20662;-71
2022/09/04 02:55:44;;;;;;;2.13;1.00;;;16.50;69.30;;;;;;5077358;28;20980;-73
2022/09/04 02:58:42;;;;;;;3.15;0.80;;;16.50;69.40;;;;;;5068202;28;20935;-73
2022/09/04 03:01:47;;;;;;;3.35;1.15;;;16.50;69.40;;;;;;5074902;28;20434;-72
2022/09/04 03:04:21;;;;;;;2.70;1.07;;;16.50;69.50;;;;;;5088054;28;20443;-73
2022/09/04 03:06:52;;;;;;;2.78;0.93;;;16.50;69.90;;;;;;5105319;28;20410;-72
2022/09/04 03:09:39;;;;;;;2.30;0.80;;;16.40;70.30;;;;;;5083324;28;20482;-72
2022/09/04 03:12:20;;;;;;;2.70;0.77;;;16.40;69.90;;;;;;5078936;28;21060;-72
2022/09/04 03:14:53;;;;;;;2.55;1.00;;;16.30;70.30;;;;;;5085814;28;20409;-72
2022/09/04 03:17:47;;;;;;;4.90;1.08;;;16.30;70.20;;;;;;5091417;28;20425;-73
2022/09/04 03:20:22;;;;;;;3.83;1.05;;;16.30;70.70;;;;;;5090797;28;20764;-71
2022/09/04 03:23:10;;;;;;;2.85;0.85;;;16.30;70.80;;;;;;5087446;28;20417;-72
2022/09/04 03:25:57;;;;;;;3.08;1.00;;;16.30;70.70;;;;;;5071352;28;20403;-72
2022/09/04 03:28:52;;;;;;;2.05;0.70;;;16.30;70.80;;;;;;5073939;28;20458;-72
2022/09/04 03:31:21;;;;;;;3.55;1.10;;;16.20;71.10;;;;;;5081682;28;20770;-71
2022/09/04 03:33:59;;;;;;;2.55;0.98;;;16.20;71.30;;;;;;5089112;28;20812;-72
2022/09/04 03:36:44;;;;;;;5.18;1.17;;;16.20;71.10;;;;;;5076635;28;20758;-72
2022/09/04 03:39:22;;;;;;;2.40;1.13;;;16.10;71.60;;;;;;5088845;28;20413;-71
2022/09/04 03:42:07;;;;;;;4.28;0.95;;;16.10;71.20;;;;;;5085226;28;20407;-71
2022/09/04 03:44:54;;;;;;;4.63;1.17;;;16.10;71.20;;;;;;5071500;28;20514;-72
2022/09/04 03:47:53;;;;;;;3.65;1.00;;;16.10;71.10;;;;;;5090354;28;20406;-72
2022/09/04 03:50:19;;;;;;;2.67;0.90;;;16.10;71.40;;;;;;5076495;28;20485;-72
2022/09/04 03:53:11;;;;;;;4.00;1.30;;;16.10;71.50;;;;;;5078424;28;20528;-72
2022/09/04 03:56:02;;;;;;;3.20;0.98;;;16.10;71.70;;;;;;5068870;28;20412;-71
2022/09/04 03:58:50;;;;;;;2.67;1.02;;;16.10;72.70;;;;;;5075085;28;20410;-72
2022/09/04 04:01:31;;;;;;;3.83;1.30;;;16.10;72.20;;;;;;5090280;28;20437;-71
2022/09/04 04:04:16;;;;;;;4.15;1.30;;;16.00;72.00;;;;;;5090601;28;20857;-71
2022/09/04 04:07:15;;;;;;;2.47;1.10;;;16.00;72.30;;;;;;5090312;28;20430;-72
2022/09/04 04:10:12;;;;;;;3.97;1.25;;;16.00;72.40;;;;;;5070899;28;20454;-71
2022/09/04 04:12:59;;;;;;;3.10;1.10;;;16.00;72.40;;;;;;5081393;28;20490;-72
2022/09/04 04:15:45;;;;;;;2.67;0.98;;;16.00;72.70;;;;;;5089829;28;20406;-71
2022/09/04 04:18:55;;;;;;;3.08;1.10;;;15.90;72.70;;;;;;5078571;28;20481;-71
2022/09/04 04:21:37;;;;;;;3.45;1.08;;;15.90;72.90;;;;;;5079472;28;20409;-71
2022/09/04 04:24:13;;;;;;;3.33;1.25;;;15.90;73.00;;;;;;5070384;28;20431;-72
2022/09/04 04:26:57;;;;;;;3.75;1.15;;;15.80;73.00;;;;;;5086606;28;20406;-71
2022/09/04 04:29:38;;;;;;;4.55;1.02;;;15.80;73.00;;;;;;5089835;28;20414;-71
2022/09/04 04:32:23;;;;;;;3.70;1.00;;;15.80;73.70;;;;;;5085175;28;20933;-73
2022/09/04 04:35:03;;;;;;;5.38;1.48;;;15.80;73.50;;;;;;5082597;28;20753;-71
2022/09/04 04:37:32;;;;;;;2.85;1.00;;;15.80;73.80;;;;;;5080649;28;20403;-72
2022/09/04 04:40:19;;;;;;;3.73;1.20;;;15.80;74.10;;;;;;5070188;28;20429;-72
2022/09/04 04:43:33;;;;;;;2.90;1.00;;;15.80;73.90;;;;;;5096230;27;20421;-71
2022/09/04 04:46:36;;;;;;;3.70;1.00;;;15.70;74.30;;;;;;5075228;27;20395;-71
2022/09/04 04:49:27;;;;;;;4.03;1.27;;;15.70;74.40;;;;;;5115557;27;20395;-71
2022/09/04 04:52:34;;;;;;;4.32;1.00;;;15.70;74.90;;;;;;5097968;27;20814;-72
2022/09/04 04:55:07;;;;;;;2.08;0.98;;;15.60;74.70;;;;;;5063867;28;20408;-72
2022/09/04 04:57:56;;;;;;;2.83;0.93;;;15.60;74.90;;;;;;5117068;27;20438;-72
2022/09/04 05:00:31;;;;;;;4.07;1.20;;;15.60;74.80;;;;;;5125876;27;20910;-71
2022/09/04 05:03:26;;;;;;;2.25;1.02;;;15.50;74.80;;;;;;5120769;27;20414;-72
2022/09/04 05:06:11;;;;;;;3.42;1.25;;;15.50;74.70;;;;;;5109805;28;20404;-71
2022/09/04 05:08:51;;;;;;;3.60;1.20;;;15.50;75.00;;;;;;5128349;27;20407;-71
2022/09/04 05:11:28;;;;;;;3.95;1.20;;;15.50;75.00;;;;;;5128837;27;20407;-72
2022/09/04 05:14:17;;;;;;;3.60;1.20;;;15.50;75.20;;;;;;5118454;27;20402;-72
2022/09/04 05:17:16;;;;;;;2.58;1.17;;;15.50;75.20;;;;;;5129197;27;20395;-72
2022/09/04 05:19:54;;;;;;;3.07;1.20;;;15.50;75.30;;;;;;5123179;27;20401;-71
2022/09/04 05:22:32;;;;;;;5.57;1.20;;;15.50;75.80;;;;;;5128284;27;20415;-72
2022/09/04 05:25:36;;;;;;;2.90;1.10;;;15.50;76.20;;;;;;5102650;28;20409;-72
2022/09/04 05:28:22;;;;;;;3.97;1.30;;;15.50;76.10;;;;;;5121841;27;20898;-71
2022/09/04 05:30:54;;;;;;;2.88;1.00;;;15.50;76.10;;;;;;5109098;27;20408;-72
2022/09/04 05:33:57;;;;;;;2.72;1.10;;;15.50;76.20;;;;;;5109416;27;20491;-71
2022/09/04 05:36:48;;;;;;;3.38;1.10;;;15.50;76.50;;;;;;5109924;28;20433;-73
2022/09/04 05:39:29;;;;;;;2.40;0.90;;;15.50;76.50;;;;;;5127521;27;20474;-71
2022/09/04 05:42:20;;;;;;;3.47;1.20;;;15.50;76.50;;;;;;5128872;27;20398;-72
2022/09/04 05:45:07;;;;;;;3.10;1.05;;;15.50;76.50;;;;;;5129705;27;20418;-72
2022/09/04 05:47:51;;;;;;;2.90;1.00;;;15.60;77.10;;;;;;5116773;27;20435;-72
2022/09/04 05:50:35;;;;;;;3.13;1.40;;;15.60;77.20;;;;;;5129515;27;20407;-72
2022/09/04 05:53:30;;;;;;;3.27;1.33;;;15.60;77.10;;;;;;5129656;27;20828;-72
2022/09/04 05:56:24;;;;;;;2.53;1.10;;;15.60;77.20;;;;;;5124935;27;20417;-72
2022/09/04 05:58:55;;;;;;;3.28;1.13;;;15.70;77.30;;;;;;5123362;27;20410;-71
2022/09/04 06:01:30;;;;;;;4.18;1.20;;;15.80;76.60;;;;;;5116302;27;20407;-72
2022/09/04 06:04:26;;;;;;;1.77;1.10;;;15.80;77.00;;;;;;5128051;27;20422;-72
2022/09/04 06:07:06;;;;;;;3.70;1.17;;;15.90;76.90;;;;;;5129446;27;20928;-72
2022/09/04 06:09:45;;;;;;;3.53;1.10;;;16.00;77.10;;;;;;5129376;27;20407;-72
2022/09/04 06:12:25;;;;;;;3.47;1.10;;;16.00;77.20;;;;;;5127779;27;21023;-72
2022/09/04 06:15:13;;;;;;;2.50;1.08;;;16.00;76.80;;;;;;5119224;27;20414;-72
2022/09/04 06:18:05;;;;;;;3.50;0.98;;;16.10;76.70;;;;;;5116877;27;20434;-72
2022/09/04 06:20:47;;;;;;;2.55;1.08;;;16.10;76.60;;;;;;5121663;27;20777;-72
2022/09/04 06:23:34;;;;;;;4.87;1.30;;;16.20;76.90;;;;;;5128060;27;20429;-72
2022/09/04 06:26:26;;;;;;;5.97;1.60;;;16.30;76.70;;;;;;5128260;27;20769;-72
2022/09/04 06:29:10;;;;;;;2.72;0.95;;;16.30;76.80;;;;;;5126614;27;20853;-72
2022/09/04 06:32:13;;;;;;;2.92;1.10;;;16.40;77.00;;;;;;5128674;27;20945;-71
2022/09/04 06:34:41;;;;;;;3.05;1.38;;;16.50;76.10;;;;;;5128728;27;20409;-72
2022/09/04 06:37:25;;;;;;;3.10;1.10;;;16.60;76.00;;;;;;5115736;27;20398;-72
2022/09/04 06:40:15;;;;;;;3.28;1.10;;;16.60;75.60;;;;;;5126709;27;20481;-72
2022/09/04 06:43:03;;;;;;;3.85;1.40;;;16.60;75.20;;;;;;5120658;27;20434;-72
2022/09/04 06:45:43;;;;;;;4.13;1.15;;;16.70;75.50;;;;;;5124861;27;20415;-72
2022/09/04 06:48:37;;;;;;;5.70;1.10;;;16.70;75.00;;;;;;5131258;27;20406;-72
2022/09/04 06:51:29;;;;;;;2.80;1.20;;;16.70;74.90;;;;;;5126848;27;20464;-72
2022/09/04 06:54:14;;;;;;;3.70;0.95;;;16.80;75.30;;;;;;5124724;27;20835;-72
2022/09/04 06:57:17;;;;;;;3.80;1.37;;;16.80;75.10;;;;;;5126096;27;20483;-72
2022/09/04 07:00:10;;;;;;;4.50;1.38;;;16.90;75.00;;;;;;5118147;27;20508;-72
2022/09/04 07:03:07;;;;;;;2.40;1.25;;;16.90;75.00;;;;;;5118330;27;20443;-72
2022/09/04 07:06:04;;;;;;;2.47;1.10;;;16.90;75.10;;;;;;5102766;27;20424;-72
2022/09/04 07:08:39;;;;;;;2.72;1.30;;;16.90;74.90;;;;;;5105213;27;20478;-72
2022/09/04 07:11:34;;;;;;;2.75;1.13;;;17.00;74.50;;;;;;5101964;27;20404;-72
2022/09/04 07:14:18;;;;;;;2.83;1.25;;;17.00;74.80;;;;;;5120599;27;20406;-72
2022/09/04 07:17:07;;;;;;;4.65;1.25;;;17.00;74.80;;;;;;5121130;27;20487;-72
2022/09/04 07:20:17;;;;;;;4.43;1.35;;;17.00;74.30;;;;;;5120861;27;20845;-72
2022/09/04 07:23:03;;;;;;;3.58;1.40;;;17.10;74.50;;;;;;5098692;27;20806;-72
2022/09/04 07:25:29;;;;;;;4.97;1.40;;;17.20;74.80;;;;;;5122558;27;20924;-73
2022/09/04 07:28:10;;;;;;;3.67;1.40;;;17.20;74.80;;;;;;5121911;27;20506;-72
2022/09/04 07:31:03;;;;;;;4.03;1.48;;;17.30;74.80;;;;;;5101443;27;20411;-72
2022/09/04 07:33:40;;;;;;;2.65;1.40;;;17.40;74.60;;;;;;5098987;27;20400;-72
2022/09/04 07:36:17;;;;;;;3.95;1.52;;;17.40;74.20;;;;;;5125464;27;20913;-72
2022/09/04 07:38:57;;;;;;;2.45;1.20;;;17.50;74.20;;;;;;5105810;27;20400;-72
2022/09/04 07:41:44;;;;;;;3.38;1.38;;;17.50;73.90;;;;;;5099618;27;20398;-72
2022/09/04 07:44:28;;;;;;;3.30;1.40;;;17.60;74.10;;;;;;5124568;27;21195;-72
2022/09/04 07:47:35;;;;;;;2.95;1.35;;;17.70;74.60;;;;;;5079208;27;20413;-72
2022/09/04 07:50:18;;;;;;;2.80;1.50;;;17.90;74.40;;;;;;5101515;27;20868;-72
2022/09/04 07:53:03;;;;;;;4.60;1.60;;;17.90;73.80;;;;;;5098615;27;20404;-72
2022/09/04 07:55:40;;;;;;;4.07;1.47;;;18.00;73.80;;;;;;5129390;27;20495;-71
2022/09/04 07:58:37;;;;;;;4.35;1.30;;;18.10;73.90;;;;;;5107179;27;20411;-72
2022/09/04 08:01:27;;;;;;;3.03;1.33;;;18.20;73.80;;;;;;5119064;27;20477;-72
2022/09/04 08:03:58;;;;;;;3.25;1.40;;;18.20;73.40;;;;;;5121796;27;20426;-72
2022/09/04 08:06:36;;;;;;;4.47;1.13;;;18.40;73.60;;;;;;5105691;27;20414;-72
2022/09/04 08:09:40;;;;;;;4.07;1.35;;;18.40;73.20;;;;;;5128937;27;20486;-72
2022/09/04 08:12:30;;;;;;;6.90;1.60;;;18.50;73.20;;;;;;5126086;27;20403;-72
2022/09/04 08:15:15;;;;;;;2.70;1.30;;;18.60;73.20;;;;;;5124439;27;20419;-73
2022/09/04 08:18:02;;;;;;;3.47;1.63;;;18.70;73.60;;;;;;5119000;27;20404;-71
2022/09/04 08:20:54;;;;;;;4.07;1.30;;;18.80;73.10;;;;;;5128014;27;20486;-71
2022/09/04 08:23:43;;;;;;;4.22;1.70;;;18.90;73.80;;;;;;5122508;27;21128;-71
2022/09/04 08:26:24;;;;;;;3.73;1.70;;;19.10;73.00;;;;;;5119432;27;20403;-71
2022/09/04 08:29:10;;;;;;;2.70;1.23;;;19.20;72.40;;;;;;5124746;27;20979;-71
2022/09/04 08:32:08;;;;;;;3.03;1.05;;;19.30;72.50;;;;;;5131082;27;20413;-72
2022/09/04 08:34:52;;;;;;;4.13;1.50;;;19.40;72.50;;;;;;5125156;27;20409;-72
2022/09/04 08:37:25;;;;;;;3.50;1.48;;;19.50;71.60;;;;;;5120748;27;20406;-73
2022/09/04 08:40:17;;;;;;;1.83;0.90;;;19.60;71.70;;;;;;5130702;27;20453;-71
2022/09/04 08:42:56;;;;;;;8.43;1.40;;;19.70;72.00;;;;;;5117371;27;20459;-71
2022/09/04 08:45:45;;;;;;;3.40;1.27;;;19.80;71.70;;;;;;5120687;27;20410;-71
2022/09/04 08:48:21;;;;;;;2.30;1.10;;;19.80;71.10;;;;;;5130272;27;20407;-72
2022/09/04 08:51:05;;;;;;;2.95;1.30;;;19.80;71.30;;;;;;5127032;27;20419;-72
2022/09/04 08:53:56;;;;;;;2.67;1.23;;;19.90;71.70;;;;;;5100810;27;20502;-72
2022/09/04 08:56:36;;;;;;;2.72;1.30;;;20.10;71.70;;;;;;5134204;27;20507;-72
2022/09/04 08:59:41;;;;;;;2.73;1.30;;;20.10;71.50;;;;;;5146900;27;20473;-72
2022/09/04 09:02:32;;;;;;;3.97;1.42;;;20.30;71.20;;;;;;5143444;27;20452;-72
2022/09/04 09:05:15;;;;;;;3.08;1.20;;;20.50;70.30;;;;;;5135324;27;20911;-73
2022/09/04 09:08:41;;;;;;;3.20;1.30;;;20.60;70.50;;;;;;5130984;27;20900;-71
2022/09/04 09:11:42;;;;;;;4.57;1.40;;;20.80;69.60;;;;;;5042223;28;20444;-72
2022/09/04 09:14:13;;;;;;;3.58;1.20;;;20.90;70.00;;;;;;5065735;28;20423;-72
2022/09/04 09:16:43;;;;;;;3.85;1.20;;;21.10;69.20;;;;;;5106537;27;20436;-72
2022/09/04 09:19:41;;;;;;;2.83;1.27;;;21.30;68.90;;;;;;5130235;27;20430;-70
2022/09/04 09:22:35;;;;;;;2.95;1.10;;;21.90;69.90;;;;;;5111819;27;20922;-72
2022/09/04 09:25:19;;;;;;;4.70;1.58;;;22.80;66.40;;;;;;5125973;27;20483;-72
2022/09/04 09:27:54;;;;;;;3.08;1.20;;;23.30;65.60;;;;;;5129191;27;20436;-71
2022/09/04 09:30:21;;;;;;;4.38;1.30;;;23.80;65.00;;;;;;5121928;27;20415;-70
2022/09/04 09:33:06;;;;;;;4.20;1.30;;;24.30;64.60;;;;;;5131802;27;20841;-71
2022/09/04 09:35:56;;;;;;;3.23;1.67;;;24.70;64.40;;;;;;5136165;27;20395;-71
2022/09/04 09:38:42;;;;;;;4.87;1.63;;;25.10;61.00;;;;;;5146918;27;20402;-71
2022/09/04 09:41:32;;;;;;;3.72;1.45;;;25.20;61.00;;;;;;5128367;27;20900;-72
2022/09/04 09:44:28;;;;;;;2.50;1.25;;;25.30;61.00;;;;;;5147175;27;20454;-71
2022/09/04 09:47:22;;;;;;;3.88;1.45;;;25.60;61.70;;;;;;5149115;27;20410;-72
2022/09/04 09:50:11;;;;;;;3.53;1.50;;;26.00;59.50;;;;;;5127039;27;20431;-72
2022/09/04 09:53:09;;;;;;;5.30;1.63;;;26.10;59.80;;;;;;5128856;27;20423;-71
2022/09/04 09:56:31;;;;;;;2.10;1.38;;;26.30;60.30;;;;;;5086687;27;20418;-72
2022/09/04 09:59:47;;;;;;;3.35;1.40;;;26.70;58.30;;;;;;5052055;28;20421;-72
2022/09/04 10:02:33;;;;;;;3.13;1.27;;;26.60;58.10;;;;;;5045144;28;20497;-72
2022/09/04 10:05:11;;;;;;;4.00;1.23;;;26.80;59.20;;;;;;5128403;27;20829;-71
2022/09/04 10:08:10;;;;;;;3.58;1.38;;;27.10;58.80;;;;;;5122934;27;20457;-70
2022/09/04 10:10:48;;;;;;;3.80;1.20;;;27.40;58.30;;;;;;5127497;27;20923;-71
2022/09/04 10:13:44;;;;;;;2.83;1.20;;;27.50;57.50;;;;;;5119702;27;20507;-71
2022/09/04 10:16:25;;;;;;;2.92;1.10;;;27.50;56.80;;;;;;5101792;27;20511;-71
2022/09/04 10:19:15;;;;;;;4.00;1.17;;;27.70;56.80;;;;;;5128766;27;20520;-71
2022/09/04 10:22:07;;;;;;;3.72;1.33;;;28.00;56.10;;;;;;5127099;27;20456;-71
2022/09/04 10:25:04;;;;;;;3.25;1.10;;;28.20;55.90;;;;;;5128061;27;20510;-72
2022/09/04 10:28:02;;;;;;;3.42;1.13;;;28.40;55.40;;;;;;5118910;27;20486;-72
2022/09/04 10:30:36;;;;;;;4.13;1.20;;;28.60;54.80;;;;;;5116629;27;20472;-71
2022/09/04 10:33:12;;;;;;;3.65;1.20;;;28.60;53.80;;;;;;5127647;27;20398;-71
2022/09/04 10:36:05;;;;;;;2.53;1.00;;;28.60;53.70;;;;;;5118776;27;20396;-71
2022/09/04 10:41:45;;;;;;;2.47;1.10;;;28.70;54.50;;;;;;5126313;27;20482;-71
2022/09/04 10:44:47;;;;;;;2.65;1.15;;;28.80;54.40;;;;;;5127108;27;20463;-71
2022/09/04 10:47:19;;;;;;;4.13;1.17;;;29.00;54.10;;;;;;5127300;27;20410;-71
2022/09/04 10:50:02;;;;;;;3.20;1.10;;;29.20;52.90;;;;;;5128059;28;20399;-71
2022/09/04 10:52:29;;;;;;;3.70;1.13;;;29.20;53.30;;;;;;5126862;27;20390;-71
2022/09/04 10:55:13;;;;;;;2.67;0.93;;;29.20;52.70;;;;;;5128484;28;20926;-71
2022/09/04 10:58:19;;;;;;;3.17;1.00;;;29.40;53.30;;;;;;5128387;27;20533;-71
2022/09/04 11:01:10;;;;;;;3.00;1.20;;;29.60;52.80;;;;;;5128171;28;20987;-71
2022/09/04 11:04:02;;;;;;;3.10;1.10;;;29.50;52.00;;;;;;5128963;27;20475;-71
2022/09/04 11:06:52;;;;;;;1.98;1.00;;;29.90;52.60;;;;;;5118448;28;20410;-71
2022/09/04 11:09:36;;;;;;;2.15;0.90;;;30.10;51.30;;;;;;5116122;28;20043;-71
2022/09/04 11:12:33;;;;;;;3.10;1.25;;;30.00;51.50;;;;;;5128008;28;20475;-71
2022/09/04 11:15:20;;;;;;;4.07;1.00;;;30.00;52.20;;;;;;5099009;27;20405;-72
2022/09/04 11:17:58;;;;;;;;;;;29.80;50.60;;;;;;5130395;27;20097;-71
2022/09/04 11:20:29;;;;;;;;;;;29.50;50.70;;;;;;5129511;28;19976;-71
2022/09/04 11:23:10;;;;;;;;;;;29.50;51.90;;;;;;5129995;28;20034;-71
2022/09/04 11:25:54;;;;;;;;;;;29.70;52.50;;;;;;5130351;27;20668;-71
2022/09/04 11:28:39;;;;;;;;;;;29.80;52.20;;;;;;5133842;27;19919;-72
2022/09/04 11:31:24;;;;;;;;;;;29.90;50.70;;;;;;5132683;27;20425;-70
2022/09/04 11:33:55;;;;;;;;;;;29.90;50.80;;;;;;5122440;27;19926;-71
2022/09/04 11:36:23;;;;;;;3.17;1.10;;;29.80;51.00;;;;;;5118669;27;19974;-71
2022/09/04 11:38:58;;;;;;;3.92;1.08;;;29.80;50.70;;;;;;5125087;27;20469;-71
2022/09/04 11:41:56;;;;;;;4.60;1.42;;;29.80;50.50;;;;;;5130549;27;20402;-71
2022/09/04 11:44:24;;;;;;;;;;;29.90;51.70;;;;;;5090101;27;20051;-72
2022/09/04 11:47:07;;;;;;;;;;;30.20;50.40;;;;;;5129149;27;19919;-71
2022/09/04 11:49:46;;;;;;;;;;;30.30;50.90;;;;;;5120536;27;19991;-71
2022/09/04 11:52:15;;;;;;;;;;;30.50;51.40;;;;;;5133597;27;19925;-71
2022/09/04 11:55:03;;;;;;;;;;;30.90;50.50;;;;;;5100688;27;19926;-71
2022/09/04 11:57:56;;;;;;;;;;;31.20;50.10;;;;;;5131766;27;19969;-71
2022/09/04 12:00:21;;;;;;;;;;;31.40;50.10;;;;;;5121455;27;19919;-71
2022/09/04 12:02:59;;;;;;;;;;;31.80;49.80;;;;;;5131436;27;19950;-71
2022/09/04 12:05:44;;;;;;;;;;;32.00;48.60;;;;;;5113079;28;19928;-71
2022/09/04 12:08:12;;;;;;;;;;;31.90;48.40;;;;;;5132225;27;19923;-71
2022/09/04 12:10:48;;;;;;;;;;;31.80;48.70;;;;;;5133546;27;20304;-71
2022/09/04 12:13:32;;;;;;;;;;;31.60;47.50;;;;;;5126011;27;19930;-71
2022/09/04 12:16:03;;;;;;;;;;;31.40;48.20;;;;;;5122186;27;20381;-71
2022/09/04 12:18:30;;;;;;;;;;;31.30;47.90;;;;;;5120002;27;19919;-72
2022/09/04 12:21:01;;;;;;;;;;;31.30;48.70;;;;;;5114649;27;20009;-71
2022/09/04 12:23:52;;;;;;;;;;;31.30;48.90;;;;;;5115425;27;19927;-71
2022/09/04 12:26:19;;;;;;;;;;;31.40;48.20;;;;;;5126895;27;19919;-72
2022/09/04 12:28:47;;;;;;;;;;;31.50;48.60;;;;;;5129867;27;20385;-71
2022/09/04 12:31:15;;;;;;;;;;;31.50;48.20;;;;;;5118898;27;19920;-72
2022/09/04 12:33:50;;;;;;;;;;;31.60;48.10;;;;;;5117077;27;19920;-72
2022/09/04 12:36:18;;;;;;;;;;;31.70;47.70;;;;;;5124958;27;19923;-71
2022/09/04 12:39:02;;;;;;;;;;;31.70;48.20;;;;;;5133268;27;20010;-72
2022/09/04 12:41:42;;;;;;;;;;;31.70;47.20;;;;;;5133048;27;19926;-71
2022/09/04 12:44:17;;;;;;;;;;;32.00;48.10;;;;;;5120511;27;19977;-71
2022/09/04 12:47:14;;;;;;;1.85;0.70;;;32.50;47.70;;;;;;5128280;27;19920;-71
2022/09/04 12:49:40;;;;;;;;;;;33.00;47.60;;;;;;5126595;27;20059;-72
2022/09/04 12:52:29;;;;;;;4.28;0.88;;;33.20;47.20;;;;;;5124441;27;19919;-72
2022/09/04 12:55:08;;;;;;;3.55;0.90;;;33.50;47.60;;;;;;5119935;27;20035;-72
2022/09/04 12:57:59;;;;;;;7.30;1.20;;;33.60;45.50;;;;;;5114411;27;20130;-71
2022/09/04 13:00:31;;;;;;;;;;;33.50;46.10;;;;;;5132078;27;20047;-72
2022/09/04 13:03:09;;;;;;;81.65;5.60;;;33.60;46.20;;;;;;5130874;27;20067;-72
2022/09/04 13:06:24;;;;;;;1.48;0.70;;;33.70;46.40;;;;;;5131160;27;20038;-72
2022/09/04 13:09:09;;;;;;;;;;;33.60;46.00;;;;;;5097716;27;20150;-72
2022/09/04 13:11:37;;;;;;;;;;;33.50;46.30;;;;;;5124988;27;19923;-72
2022/09/04 13:14:06;;;;;;;;;;;33.50;46.80;;;;;;5132496;27;19959;-72
2022/09/04 13:16:34;;;;;;;;;;;33.70;46.30;;;;;;5129079;27;19919;-72
2022/09/04 13:19:12;;;;;;;;;;;33.70;46.60;;;;;;5132101;27;20060;-72
2022/09/04 13:21:48;;;;;;;;;;;33.90;46.00;;;;;;5132319;27;19920;-71
2022/09/04 13:24:57;;;;;;;9.90;1.20;;;34.20;46.80;;;;;;5131377;27;19926;-72
2022/09/04 13:27:26;;;;;;;;;;;34.80;45.50;;;;;;5121459;27;20035;-72
2022/09/04 13:29:58;;;;;;;;;;;34.80;44.30;;;;;;5131727;27;20441;-72
2022/09/04 13:32:32;;;;;;;3.33;1.02;;;34.90;45.10;;;;;;5125163;27;19980;-72
2022/09/04 13:34:58;;;;;;;;;;;35.10;45.80;;;;;;5130495;27;20127;-71
2022/09/04 13:37:32;;;;;;;;;;;35.30;44.70;;;;;;5100516;28;20358;-72
2022/09/04 13:40:03;;;;;;;;;;;35.40;45.10;;;;;;5117188;27;19923;-72
2022/09/04 13:42:59;;;;;;;3.25;1.00;;;35.40;44.60;;;;;;5130848;27;19920;-72
2022/09/04 13:45:28;;;;;;;4.00;0.90;;;35.10;45.00;;;;;;5124189;27;20515;-73
2022/09/04 13:48:24;;;;;;;3.42;0.70;;;35.30;45.30;;;;;;5098197;27;20798;-71
2022/09/04 13:50:56;;;;;;;4.00;0.82;;;35.50;44.80;;;;;;5129288;27;20046;-72
2022/09/04 13:54:05;;;;;;;3.28;0.50;;;35.70;44.80;;;;;;5130892;27;20050;-72
2022/09/04 13:56:48;;;;;;;3.00;0.68;;;35.40;44.70;;;;;;5113603;27;20420;-73
2022/09/04 13:59:17;;;;;;;4.10;1.00;;;35.50;44.20;;;;;;5111385;27;20406;-72
2022/09/04 14:01:49;;;;;;;1.67;0.68;;;35.40;44.10;;;;;;5116078;27;20459;-72
2022/09/04 14:04:38;;;;;;;3.00;0.80;;;35.20;44.10;;;;;;5126866;27;20438;-72
2022/09/04 14:07:13;;;;;;;2.30;0.90;;;35.00;44.10;;;;;;5129348;27;20455;-73
2022/09/04 14:09:44;;;;;;;1.60;0.60;;;34.80;44.00;;;;;;5116681;27;20452;-72
2022/09/04 14:12:26;;;;;;;2.40;0.90;;;34.50;44.00;;;;;;5129036;27;20402;-72
2022/09/04 14:15:04;;;;;;;3.00;0.63;;;34.10;43.80;;;;;;5124813;27;20433;-72
2022/09/04 14:17:41;;;;;;;2.90;1.00;;;33.60;44.70;;;;;;5128422;27;20455;-72
2022/09/04 14:20:27;;;;;;;1.92;0.80;;;32.90;45.00;;;;;;5116648;27;20472;-72
2022/09/04 14:23:24;;;;;;;2.67;0.95;;;32.40;45.70;;;;;;5118751;27;20409;-71
2022/09/04 14:25:53;;;;;;;2.53;0.97;;;31.80;46.00;;;;;;5128702;27;20413;-71
2022/09/04 14:28:36;;;;;;;2.40;0.90;;;31.60;46.70;;;;;;5128563;27;20399;-72
2022/09/04 14:31:30;;;;;;;2.25;0.70;;;31.40;46.70;;;;;;5119128;27;20406;-72